Time;durP1;ratioP1;P1;durP2;ratioP2;P2;SDS_P1;SDS_P2;PMS_P1;PMS_P2;Temp;Humidity;BMP_temperature;BMP_pressure;BME280_temperature;BME280_humidity;BME280_pressure;Samples;Min_cycle;Max_cycle;Signal;HPM_P1;HPM_P2
2023/02/22 00:00:47;;;;;;;11.85;6.43;;;;;;;10.55;100.00;96283.28;5101687;28;20082;-52
2023/02/22 00:03:17;;;;;;;10.38;5.75;;;;;;;10.56;100.00;96287.56;5093753;27;20472;-48
2023/02/22 00:05:46;;;;;;;10.77;6.40;;;;;;;10.64;100.00;96282.41;5098494;27;20067;-47
2023/02/22 00:08:16;;;;;;;10.50;6.07;;;;;;;10.65;100.00;96270.88;5104303;27;20079;-49
2023/02/22 00:10:46;;;;;;;8.57;5.80;;;;;;;10.38;100.00;96279.66;5096183;28;20079;-46
2023/02/22 00:13:14;;;;;;;9.63;4.80;;;;;;;10.29;100.00;96273.47;5099852;27;20124;-51
2023/02/22 00:15:43;;;;;;;10.23;5.53;;;;;;;10.46;100.00;96274.47;5103648;27;21427;-51
2023/02/22 00:18:13;;;;;;;10.27;6.00;;;;;;;10.51;100.00;96274.03;5097169;28;20096;-50
2023/02/22 00:20:42;;;;;;;11.88;5.47;;;;;;;10.53;100.00;96267.63;5100414;28;20087;-52
2023/02/22 00:23:17;;;;;;;11.38;5.78;;;;;;;10.50;100.00;96272.38;5102144;27;20086;-45
2023/02/22 00:25:48;;;;;;;9.73;5.32;;;;;;;10.28;100.00;96266.53;5103955;28;20514;-50
2023/02/22 00:28:17;;;;;;;8.52;5.22;;;;;;;10.12;100.00;96268.94;5096815;28;20071;-50
2023/02/22 00:30:47;;;;;;;8.10;4.90;;;;;;;10.05;100.00;96267.84;5103160;28;20333;-49
2023/02/22 00:33:16;;;;;;;10.88;4.88;;;;;;;9.62;100.00;96264.84;5098177;28;20067;-46
2023/02/22 00:35:45;;;;;;;7.47;4.75;;;;;;;9.74;100.00;96268.97;5094193;28;20570;-51
2023/02/22 00:38:16;;;;;;;9.15;4.93;;;;;;;9.46;100.00;96262.81;5101819;28;20074;-50
2023/02/22 00:40:45;;;;;;;11.80;6.03;;;;;;;9.54;100.00;96262.09;5100911;28;20435;-51
2023/02/22 00:43:15;;;;;;;11.43;5.35;;;;;;;9.83;100.00;96259.34;5102950;28;20610;-48
2023/02/22 00:45:43;;;;;;;9.23;4.70;;;;;;;9.54;100.00;96266.53;5094134;27;20071;-49
2023/02/22 00:48:12;;;;;;;9.38;4.97;;;;;;;9.51;100.00;96263.22;5097186;27;20075;-51
2023/02/22 00:50:40;;;;;;;13.18;4.97;;;;;;;9.71;100.00;96264.00;5097095;28;20451;-50
2023/02/22 00:53:09;;;;;;;10.48;4.63;;;;;;;8.97;100.00;96271.75;5093763;28;20083;-47
2023/02/22 00:55:38;;;;;;;8.65;4.32;;;;;;;9.27;100.00;96263.69;5099744;27;20067;-50
2023/02/22 00:58:07;;;;;;;7.65;4.70;;;;;;;9.39;100.00;96264.34;5103047;28;20538;-51
2023/02/22 01:00:39;;;;;;;8.35;4.70;;;;;;;9.28;100.00;96270.59;5106368;27;20063;-49
2023/02/22 01:03:10;;;;;;;11.27;5.03;;;;;;;9.56;100.00;96254.88;5103271;28;20075;-52
2023/02/22 01:05:39;;;;;;;9.82;5.22;;;;;;;9.60;100.00;96255.41;5099036;27;20074;-51
2023/02/22 01:08:10;;;;;;;8.88;4.68;;;;;;;9.43;100.00;96257.84;5099123;27;20056;-48
2023/02/22 01:10:39;;;;;;;9.30;5.30;;;;;;;9.69;100.00;96252.75;5109686;27;20056;-52
2023/02/22 01:13:10;;;;;;;9.63;5.18;;;;;;;9.56;100.00;96248.78;5107543;27;20097;-54
2023/02/22 01:15:43;;;;;;;8.07;4.68;;;;;;;9.40;100.00;96250.22;5099756;27;20614;-50
2023/02/22 01:18:16;;;;;;;11.13;4.75;;;;;;;9.53;100.00;96249.88;5099327;27;22471;-50
2023/02/22 01:20:46;;;;;;;8.38;5.03;;;;;;;9.62;100.00;96242.94;5111183;27;20074;-52
2023/02/22 01:23:16;;;;;;;10.30;5.00;;;;;;;9.65;100.00;96243.50;5109596;27;20077;-52
2023/02/22 01:25:44;;;;;;;10.05;4.85;;;;;;;9.67;100.00;96238.06;5105292;27;20083;-47
2023/02/22 01:28:14;;;;;;;10.20;4.78;;;;;;;9.60;100.00;96237.00;5096574;27;20507;-49
2023/02/22 01:30:43;;;;;;;7.72;4.60;;;;;;;9.54;100.00;96235.78;5100857;27;20523;-49
2023/02/22 01:33:14;;;;;;;9.53;5.50;;;;;;;9.55;100.00;96233.97;5101201;27;20447;-46
2023/02/22 01:35:45;;;;;;;10.55;4.38;;;;;;;9.57;100.00;96234.66;5102503;27;20520;-47
2023/02/22 01:38:13;;;;;;;;;;;;;;;9.56;100.00;96231.19;5100784;27;20101;-50
2023/02/22 01:40:43;;;;;;;8.88;4.95;;;;;;;9.49;100.00;96232.72;5101629;27;19951;-50
2023/02/22 01:43:20;;;;;;;8.55;4.43;;;;;;;9.20;100.00;96232.81;5103919;27;20113;-50
2023/02/22 01:45:59;;;;;;;10.88;4.70;;;;;;;9.40;100.00;96229.16;5097418;27;20087;-49
2023/02/22 01:48:31;;;;;;;7.80;4.97;;;;;;;9.19;100.00;96231.16;5101112;27;20479;-53
2023/02/22 01:51:02;;;;;;;9.85;4.93;;;;;;;9.24;100.00;96226.31;5108336;27;20063;-52
2023/02/22 01:53:33;;;;;;;12.15;4.80;;;;;;;9.27;100.00;96229.47;5094944;27;20607;-51
2023/02/22 01:56:01;;;;;;;8.60;5.22;;;;;;;9.23;100.00;96228.09;5099460;27;20071;-49
2023/02/22 01:58:32;;;;;;;13.45;4.80;;;;;;;9.31;100.00;96226.56;5107014;27;20124;-49
2023/02/22 02:01:02;;;;;;;10.25;5.07;;;;;;;9.02;100.00;96222.19;5104333;27;20079;-50
2023/02/22 02:03:33;;;;;;;9.77;5.50;;;;;;;9.01;100.00;96218.72;5092280;28;20080;-47
2023/02/22 02:06:04;;;;;;;8.05;4.88;;;;;;;9.05;100.00;96214.03;5107475;27;20483;-49
2023/02/22 02:08:36;;;;;;;9.88;5.53;;;;;;;9.12;100.00;96209.00;5100326;27;20484;-50
2023/02/22 02:11:07;;;;;;;15.07;5.30;;;;;;;8.88;100.00;96215.56;5105722;27;20103;-51
2023/02/22 02:13:36;;;;;;;10.68;6.65;;;;;;;8.75;100.00;96213.22;5098436;27;20546;-49
2023/02/22 02:16:07;;;;;;;10.38;5.82;;;;;;;8.95;100.00;96208.78;5106938;27;20159;-51
2023/02/22 02:18:35;;;;;;;9.27;5.80;;;;;;;8.83;100.00;96211.69;5103705;27;20103;-53
2023/02/22 02:21:38;;;;;;;10.52;5.88;;;;;;;9.01;100.00;96199.47;5105435;27;20083;-52
2023/02/22 02:24:43;;;;;;;10.02;5.40;;;;;;;9.07;100.00;96201.56;5079686;28;20086;-51
2023/02/22 02:27:17;;;;;;;9.05;5.30;;;;;;;9.08;100.00;96199.75;5097957;27;20084;-52
2023/02/22 02:30:11;;;;;;;9.88;5.60;;;;;;;9.20;100.00;96194.19;5101831;27;20550;-51
2023/02/22 02:32:48;;;;;;;10.25;5.57;;;;;;;9.12;100.00;96195.84;5079470;27;20076;-48
2023/02/22 02:35:21;;;;;;;8.77;5.18;;;;;;;9.20;100.00;96198.63;5106861;27;20090;-48
2023/02/22 02:37:57;;;;;;;9.75;5.32;;;;;;;9.20;100.00;96199.44;5093978;27;20505;-55
2023/02/22 02:40:32;;;;;;;9.65;5.40;;;;;;;9.08;100.00;96197.13;5094585;27;20082;-49
2023/02/22 02:43:05;;;;;;;9.02;5.00;;;;;;;8.93;100.00;96194.94;5101667;28;20076;-46
2023/02/22 02:45:36;;;;;;;7.82;5.20;;;;;;;9.00;100.00;96193.41;5099301;27;20486;-51
2023/02/22 02:48:09;;;;;;;7.03;4.68;;;;;;;8.83;100.00;96195.91;5105234;28;20071;-50
2023/02/22 02:50:41;;;;;;;7.35;4.68;;;;;;;8.90;100.00;96189.13;5099495;27;20072;-47
2023/02/22 02:53:10;;;;;;;8.85;5.05;;;;;;;9.00;100.00;96192.56;5100466;28;20531;-48
2023/02/22 02:55:38;;;;;;;10.15;5.15;;;;;;;9.02;100.00;96180.13;5105014;27;20088;-48
2023/02/22 02:58:07;;;;;;;9.32;4.80;;;;;;;9.03;100.00;96177.34;5098190;27;20858;-49
2023/02/22 03:00:39;;;;;;;12.73;6.05;;;;;;;8.82;100.00;96175.88;5094038;27;20078;-46
2023/02/22 03:03:24;;;;;;;10.10;5.35;;;;;;;8.78;100.00;96164.78;5105842;27;20480;-49
2023/02/22 03:06:04;;;;;;;8.82;5.68;;;;;;;8.79;100.00;96158.56;5101519;27;20087;-53
2023/02/22 03:08:39;;;;;;;10.93;5.22;;;;;;;8.59;100.00;96160.38;5091320;28;20083;-50
2023/02/22 03:11:14;;;;;;;11.23;5.07;;;;;;;8.79;100.00;96162.00;5097295;27;20072;-47
2023/02/22 03:13:51;;;;;;;12.35;5.30;;;;;;;8.75;100.00;96150.13;5103717;27;20090;-48
2023/02/22 03:16:24;;;;;;;8.82;5.50;;;;;;;8.88;100.00;96148.97;5106948;27;20550;-50
2023/02/22 03:18:56;;;;;;;11.77;5.63;;;;;;;8.78;100.00;96147.22;5106524;27;20078;-50
2023/02/22 03:21:32;;;;;;;8.85;5.45;;;;;;;8.69;100.00;96144.59;5099180;27;20075;-51
2023/02/22 03:24:06;;;;;;;9.07;5.32;;;;;;;8.79;100.00;96146.25;5110874;27;20093;-46
2023/02/22 03:26:36;;;;;;;8.35;5.25;;;;;;;8.43;100.00;96145.19;5096515;27;20473;-51
2023/02/22 03:29:05;;;;;;;11.80;6.03;;;;;;;8.64;100.00;96142.41;5106794;27;20531;-46
2023/02/22 03:31:37;;;;;;;14.00;6.90;;;;;;;8.60;100.00;96153.31;5097734;28;20583;-52
2023/02/22 03:34:08;;;;;;;13.43;6.93;;;;;;;8.45;100.00;96150.28;5097942;27;20483;-47
2023/02/22 03:36:41;;;;;;;15.52;7.78;;;;;;;8.09;100.00;96157.88;5095689;27;20083;-50
2023/02/22 03:39:14;;;;;;;16.02;7.65;;;;;;;7.71;100.00;96154.22;5104073;27;20083;-49
2023/02/22 03:41:47;;;;;;;16.35;8.02;;;;;;;7.35;100.00;96161.66;5100078;27;20036;-50
2023/02/22 03:44:18;;;;;;;13.90;6.80;;;;;;;7.51;100.00;96149.88;5104724;27;20549;-49
2023/02/22 03:46:48;;;;;;;15.85;6.60;;;;;;;7.53;100.00;96153.16;5100210;28;20083;-52
2023/02/22 03:49:23;;;;;;;7.05;4.72;;;;;;;7.57;100.00;96155.41;5108051;27;20506;-54
2023/02/22 03:51:51;;;;;;;11.88;5.05;;;;;;;7.77;100.00;96153.63;5103870;27;20072;-53
2023/02/22 03:54:20;;;;;;;8.73;5.38;;;;;;;7.74;100.00;96161.81;5102209;27;20141;-50
2023/02/22 03:56:50;;;;;;;10.05;5.35;;;;;;;7.48;100.00;96161.44;5097699;27;20095;-47
2023/02/22 03:59:24;;;;;;;7.88;4.57;;;;;;;7.15;100.00;96167.78;5100473;27;20072;-49
2023/02/22 04:01:52;;;;;;;8.90;5.03;;;;;;;7.67;100.00;96170.34;5099876;27;20067;-51
2023/02/22 04:04:22;;;;;;;12.48;6.00;;;;;;;7.57;100.00;96175.53;5094646;28;20087;-50
2023/02/22 04:06:53;;;;;;;10.02;5.35;;;;;;;7.89;100.00;96171.94;5097011;28;20047;-47
2023/02/22 04:09:21;;;;;;;10.85;5.53;;;;;;;7.77;100.00;96176.44;5096058;28;20489;-50
2023/02/22 04:11:49;;;;;;;6.90;4.97;;;;;;;7.49;100.00;96178.00;5106734;27;20078;-49
2023/02/22 04:14:17;;;;;;;11.95;6.22;;;;;;;7.61;100.00;96180.41;5103642;28;20075;-49
2023/02/22 04:16:46;;;;;;;14.05;6.45;;;;;;;7.08;100.00;96183.22;5097065;27;20082;-46
2023/02/22 04:19:14;;;;;;;10.13;6.25;;;;;;;7.44;100.00;96190.72;5093650;28;20079;-47
2023/02/22 04:21:43;;;;;;;12.27;5.80;;;;;;;7.38;100.00;96186.81;5099738;28;20083;-52
2023/02/22 04:24:12;;;;;;;9.50;5.57;;;;;;;7.05;100.00;96193.94;5104878;27;20079;-55
2023/02/22 04:26:40;;;;;;;9.82;5.93;;;;;;;7.49;100.00;96186.72;5093856;28;20106;-52
2023/02/22 04:29:08;;;;;;;13.70;6.60;;;;;;;7.74;100.00;96176.72;5095467;28;20473;-47
2023/02/22 04:31:37;;;;;;;11.88;5.88;;;;;;;7.33;100.00;96171.47;5091403;27;20083;-49
2023/02/22 04:34:05;;;;;;;10.38;5.68;;;;;;;7.73;100.00;96169.81;5091896;28;20076;-50
2023/02/22 04:36:33;;;;;;;11.95;5.70;;;;;;;7.09;100.00;96166.53;5103200;28;20094;-51
2023/02/22 04:39:04;;;;;;;11.07;6.00;;;;;;;7.20;100.00;96165.63;5098300;28;20095;-52
2023/02/22 04:41:33;;;;;;;11.40;6.50;;;;;;;7.37;100.00;96157.13;5104386;27;20480;-48
2023/02/22 04:44:01;;;;;;;8.85;5.47;;;;;;;7.85;100.00;96156.44;5103606;28;20626;-50
2023/02/22 04:46:30;;;;;;;9.30;5.93;;;;;;;7.92;100.00;96148.84;5103376;28;20082;-51
2023/02/22 04:48:58;;;;;;;9.77;5.50;;;;;;;7.79;100.00;96158.78;5101834;28;20083;-45
2023/02/22 04:51:26;;;;;;;10.02;6.15;;;;;;;7.79;100.00;96156.16;5102671;28;20182;-47
2023/02/22 04:53:55;;;;;;;11.85;5.90;;;;;;;7.84;100.00;96160.03;5104523;28;20097;-47
2023/02/22 04:56:24;;;;;;;9.10;5.63;;;;;;;7.88;100.00;96152.72;5099892;28;20090;-47
2023/02/22 04:58:53;;;;;;;14.43;7.07;;;;;;;7.90;100.00;96152.56;5103153;28;20059;-47
2023/02/22 05:01:22;;;;;;;10.80;5.75;;;;;;;7.63;100.00;96147.94;5099973;28;20527;-51
2023/02/22 05:03:50;;;;;;;8.48;5.53;;;;;;;7.22;100.00;96147.13;5094567;28;20538;-47
2023/02/22 05:06:19;;;;;;;9.40;5.35;;;;;;;7.24;100.00;96147.81;5099781;28;20074;-48
2023/02/22 05:08:47;;;;;;;13.25;6.18;;;;;;;7.38;100.00;96147.47;5103939;28;20617;-52
2023/02/22 05:11:15;;;;;;;10.50;5.88;;;;;;;7.61;100.00;96143.69;5109110;28;20090;-49
2023/02/22 05:13:45;;;;;;;8.63;5.32;;;;;;;7.82;100.00;96145.38;5100717;27;20086;-50
2023/02/22 05:16:14;;;;;;;11.60;6.97;;;;;;;7.42;100.00;96154.09;5098766;28;20080;-48
2023/02/22 05:18:42;;;;;;;10.60;6.00;;;;;;;7.72;100.00;96141.91;5090623;28;20113;-51
2023/02/22 05:21:12;;;;;;;11.77;5.88;;;;;;;7.88;100.00;96138.75;5097647;28;20137;-55
2023/02/22 05:23:40;;;;;;;7.55;5.07;;;;;;;7.87;100.00;96137.09;5092795;28;20075;-49
2023/02/22 05:26:09;;;;;;;10.05;5.85;;;;;;;7.89;100.00;96143.06;5096762;28;20091;-54
2023/02/22 05:28:39;;;;;;;9.68;5.40;;;;;;;7.65;100.00;96139.00;5091960;28;20083;-51
2023/02/22 05:31:08;;;;;;;14.02;6.30;;;;;;;7.89;100.00;96140.44;5092683;28;20087;-47
2023/02/22 05:33:38;;;;;;;9.87;5.63;;;;;;;7.25;100.00;96137.19;5094370;28;20087;-51
2023/02/22 05:36:07;;;;;;;10.00;5.20;;;;;;;7.33;100.00;96132.13;5103668;28;20086;-52
2023/02/22 05:38:41;;;;;;;15.27;6.03;;;;;;;6.63;100.00;96138.94;5106078;27;20074;-51
2023/02/22 05:41:11;;;;;;;10.20;6.20;;;;;;;6.57;100.00;96144.72;5097182;27;20079;-48
2023/02/22 05:43:40;;;;;;;10.52;5.63;;;;;;;6.66;100.00;96137.84;5106340;27;20079;-49
2023/02/22 05:46:10;;;;;;;10.43;6.50;;;;;;;6.55;100.00;96140.56;5098556;28;20076;-53
2023/02/22 05:48:38;;;;;;;12.35;7.03;;;;;;;6.27;100.00;96145.44;5096536;28;20067;-51
2023/02/22 05:51:08;;;;;;;10.52;6.53;;;;;;;6.22;100.00;96137.13;5093081;27;20076;-53
2023/02/22 05:53:36;;;;;;;13.73;6.60;;;;;;;6.06;100.00;96141.97;5100351;27;20078;-53
2023/02/22 05:56:05;;;;;;;11.57;6.30;;;;;;;5.97;100.00;96142.72;5098704;27;20083;-50
2023/02/22 05:58:34;;;;;;;13.02;6.75;;;;;;;6.08;100.00;96138.25;5097638;27;20079;-54
2023/02/22 06:01:02;;;;;;;17.60;7.82;;;;;;;5.64;100.00;96145.28;5103413;27;20083;-50
2023/02/22 06:03:32;;;;;;;18.58;8.43;;;;;;;5.74;100.00;96137.50;5096017;27;20091;-53
2023/02/22 06:06:00;;;;;;;17.60;7.55;;;;;;;5.75;100.00;96139.19;5097338;27;20071;-50
2023/02/22 06:08:28;;;;;;;15.52;7.40;;;;;;;5.50;100.00;96137.66;5094506;27;20637;-51
2023/02/22 06:10:56;;;;;;;14.02;6.55;;;;;;;6.15;100.00;96143.81;5094782;28;20072;-54
2023/02/22 06:13:25;;;;;;;14.43;8.10;;;;;;;5.69;100.00;96147.50;5092980;27;20063;-53
2023/02/22 06:15:53;;;;;;;13.13;7.50;;;;;;;5.74;100.00;96140.09;5090436;27;20084;-52
2023/02/22 06:18:21;;;;;;;13.35;7.88;;;;;;;6.66;100.00;96137.84;5102885;27;20087;-52
2023/02/22 06:20:51;;;;;;;13.20;7.82;;;;;;;6.96;100.00;96137.06;5096384;27;20114;-47
2023/02/22 06:23:19;;;;;;;13.73;7.43;;;;;;;7.00;100.00;96138.47;5093781;27;20079;-49
2023/02/22 06:25:48;;;;;;;16.58;9.18;;;;;;;6.96;100.00;96137.06;5096904;27;20086;-51
2023/02/22 06:28:16;;;;;;;10.50;7.55;;;;;;;6.87;100.00;96141.28;5109735;27;20079;-51
2023/02/22 06:30:44;;;;;;;14.75;8.45;;;;;;;6.94;100.00;96135.53;5110981;27;20528;-53
2023/02/22 06:33:13;;;;;;;12.13;7.18;;;;;;;7.35;100.00;96140.69;5097111;27;20075;-49
2023/02/22 06:35:41;;;;;;;16.02;7.78;;;;;;;7.51;100.00;96144.63;5108296;27;20075;-54
2023/02/22 06:38:11;;;;;;;16.88;8.20;;;;;;;7.36;100.00;96146.75;5100070;27;20088;-48
2023/02/22 06:40:39;;;;;;;11.70;7.03;;;;;;;6.22;100.00;96154.63;5095174;27;20076;-51
2023/02/22 06:43:07;;;;;;;12.93;7.35;;;;;;;6.47;100.00;96153.44;5091698;27;20476;-49
2023/02/22 06:45:35;;;;;;;14.65;7.78;;;;;;;6.91;100.00;96144.47;5101243;27;20080;-50
2023/02/22 06:48:04;;;;;;;12.88;7.53;;;;;;;6.77;100.00;96152.69;5105566;27;20082;-50
2023/02/22 06:50:33;;;;;;;13.98;7.70;;;;;;;6.76;100.00;96146.59;5110887;27;20068;-49
2023/02/22 06:53:03;;;;;;;14.23;7.15;;;;;;;7.50;100.00;96141.16;5095381;28;20082;-53
2023/02/22 06:55:34;;;;;;;13.55;6.88;;;;;;;7.99;100.00;96147.34;5096369;27;20088;-48
2023/02/22 06:58:03;;;;;;;11.18;7.25;;;;;;;8.31;100.00;96141.81;5099228;28;20555;-49
2023/02/22 07:00:32;;;;;;;16.10;7.90;;;;;;;8.11;100.00;96149.84;5097875;27;20086;-53
2023/02/22 07:03:01;;;;;;;13.48;7.15;;;;;;;8.67;100.00;96149.16;5106215;27;20078;-45
2023/02/22 07:05:29;;;;;;;14.52;7.40;;;;;;;8.73;100.00;96149.44;5103837;27;20094;-50
2023/02/22 07:08:03;;;;;;;13.50;7.45;;;;;;;8.75;100.00;96141.41;5097368;27;20071;-52
2023/02/22 07:10:34;;;;;;;13.73;6.90;;;;;;;9.06;100.00;96143.84;5097770;27;20084;-53
2023/02/22 07:13:03;;;;;;;14.68;7.38;;;;;;;9.19;100.00;96153.06;5096414;28;20484;-53
2023/02/22 07:15:33;;;;;;;15.77;7.43;;;;;;;9.53;100.00;96141.97;5100111;28;20091;-53
2023/02/22 07:18:01;;;;;;;13.90;6.77;;;;;;;9.70;100.00;96145.63;5117727;27;20531;-52
2023/02/22 07:20:30;;;;;;;12.40;7.35;;;;;;;10.00;100.00;96147.13;5108993;27;20515;-52
2023/02/22 07:23:00;;;;;;;12.32;7.60;;;;;;;9.43;100.00;96141.22;5094533;27;20064;-51
2023/02/22 07:25:28;;;;;;;12.05;7.43;;;;;;;9.75;100.00;96144.22;5096547;27;21872;-52
2023/02/22 07:27:58;;;;;;;14.40;8.57;;;;;;;10.27;100.00;96151.53;5096869;27;20094;-54
2023/02/22 07:30:29;;;;;;;13.48;8.73;;;;;;;10.66;100.00;96138.84;5098847;27;20087;-54
2023/02/22 07:32:59;;;;;;;17.50;8.82;;;;;;;10.56;100.00;96139.94;5097376;27;20075;-52
2023/02/22 07:35:32;;;;;;;12.93;8.25;;;;;;;10.36;100.00;96136.66;5092914;27;20106;-51
2023/02/22 07:38:00;;;;;;;15.23;7.65;;;;;;;9.64;100.00;96147.06;5096300;27;20094;-50
2023/02/22 07:40:29;;;;;;;11.80;8.15;;;;;;;10.42;100.00;96138.66;5102658;27;20491;-48
2023/02/22 07:42:59;;;;;;;12.32;8.15;;;;;;;10.75;100.00;96138.94;5094243;27;20079;-56
2023/02/22 07:45:28;;;;;;;;;;;;;;;11.08;100.00;96129.41;5099863;28;20539;-54
2023/02/22 07:47:57;;;;;;;14.32;9.00;;;;;;;11.63;100.00;96129.88;5099390;28;19970;-52
2023/02/22 07:50:26;;;;;;;16.95;10.00;;;;;;;11.83;100.00;96132.25;5098446;27;20087;-51
2023/02/22 07:52:56;;;;;;;11.50;8.10;;;;;;;12.09;100.00;96125.09;5096603;27;20084;-54
2023/02/22 07:55:25;;;;;;;10.68;7.20;;;;;;;12.41;100.00;96122.66;5096147;28;20503;-49
2023/02/22 07:57:55;;;;;;;12.37;6.93;;;;;;;12.69;100.00;96120.50;5095174;27;20102;-51
2023/02/22 08:00:27;;;;;;;10.20;6.57;;;;;;;11.69;100.00;96122.28;5102086;27;20075;-52
2023/02/22 08:02:56;;;;;;;10.63;6.28;;;;;;;12.11;100.00;96127.56;5094131;28;20091;-49
2023/02/22 08:05:26;;;;;;;9.25;6.40;;;;;;;12.54;100.00;96120.34;5102705;27;20079;-50
2023/02/22 08:07:54;;;;;;;12.50;6.00;;;;;;;12.43;100.00;96118.84;5095853;27;20078;-51
2023/02/22 08:10:23;;;;;;;7.53;5.45;;;;;;;12.92;98.05;96118.00;5096266;27;20059;-51
2023/02/22 08:12:53;;;;;;;7.65;5.50;;;;;;;13.15;92.55;96107.56;5094986;28;20488;-52
2023/02/22 08:15:23;;;;;;;9.00;5.63;;;;;;;13.59;86.07;96104.44;5103116;27;20123;-49
2023/02/22 08:17:53;;;;;;;7.47;5.32;;;;;;;13.92;82.25;96098.00;5092356;28;20075;-45
2023/02/22 08:20:22;;;;;;;9.88;6.00;;;;;;;13.72;86.63;96096.78;5099990;27;20082;-47
2023/02/22 08:22:50;;;;;;;10.27;5.80;;;;;;;13.80;86.70;96091.44;5098150;27;20083;-49
2023/02/22 08:25:21;;;;;;;8.77;5.65;;;;;;;13.87;82.34;96095.06;5093928;28;20110;-52
2023/02/22 08:27:49;;;;;;;9.48;5.82;;;;;;;14.17;80.61;96092.53;5096882;28;20083;-52
2023/02/22 08:30:21;;;;;;;7.47;4.72;;;;;;;14.41;70.74;96097.66;5103817;28;20063;-47
2023/02/22 08:32:50;;;;;;;9.48;4.38;;;;;;;13.93;72.61;96101.47;5092035;28;20079;-53
2023/02/22 08:35:21;;;;;;;6.13;4.10;;;;;;;13.63;79.01;96103.94;5098302;28;20079;-54
2023/02/22 08:37:52;;;;;;;7.32;4.50;;;;;;;14.30;73.88;96098.09;5095350;28;20090;-56
2023/02/22 08:40:22;;;;;;;7.00;4.18;;;;;;;13.89;71.81;96101.00;5099589;28;20094;-52
2023/02/22 08:42:51;;;;;;;7.50;4.03;;;;;;;13.95;70.33;96095.00;5095038;27;20075;-50
2023/02/22 08:45:19;;;;;;;10.15;4.25;;;;;;;14.92;61.13;96087.31;5091033;28;20076;-51
2023/02/22 08:47:48;;;;;;;5.65;3.78;;;;;;;15.17;57.65;96084.41;5100679;27;20101;-48
2023/02/22 08:50:20;;;;;;;8.05;4.15;;;;;;;14.96;59.75;96088.59;5096455;28;20094;-48
2023/02/22 08:52:49;;;;;;;8.27;3.55;;;;;;;15.10;56.60;96086.97;5108995;27;20094;-50
2023/02/22 08:55:20;;;;;;;6.53;3.20;;;;;;;15.67;52.37;96085.53;5095951;28;20082;-47
2023/02/22 08:57:49;;;;;;;5.90;3.40;;;;;;;14.79;56.01;96094.25;5097993;28;20294;-50
2023/02/22 09:00:18;;;;;;;7.40;3.38;;;;;;;14.61;56.90;96091.91;5101441;28;20076;-49
2023/02/22 09:02:46;;;;;;;7.28;3.78;;;;;;;15.55;54.94;96079.81;5105195;27;20090;-49
2023/02/22 09:05:15;;;;;;;6.40;3.60;;;;;;;16.10;53.25;96080.28;5091231;28;20083;-51
2023/02/22 09:07:45;;;;;;;6.55;3.35;;;;;;;15.59;55.48;96080.31;5089906;28;20089;-51
2023/02/22 09:10:15;;;;;;;5.40;3.80;;;;;;;16.54;51.09;96079.28;5096187;28;20078;-49
2023/02/22 09:12:43;;;;;;;7.60;3.80;;;;;;;16.21;50.28;96068.31;5094788;28;20118;-51
2023/02/22 09:15:12;;;;;;;4.93;3.42;;;;;;;16.34;49.58;96069.31;5110260;27;20079;-50
2023/02/22 09:17:40;;;;;;;6.20;3.28;;;;;;;17.04;48.16;96062.31;5098724;27;20507;-51
2023/02/22 09:20:11;;;;;;;5.60;3.63;;;;;;;17.19;47.62;96062.19;5106255;27;20086;-45
2023/02/22 09:22:39;;;;;;;5.10;3.53;;;;;;;15.65;49.92;96072.38;5098243;27;20076;-50
2023/02/22 09:25:09;;;;;;;5.35;3.83;;;;;;;16.55;49.31;96070.28;5100534;27;20106;-45
2023/02/22 09:27:46;;;;;;;6.57;3.78;;;;;;;16.31;49.79;96067.03;5101970;27;20441;-52
2023/02/22 09:30:19;;;;;;;;;;;;;;;16.56;49.88;96066.63;5103831;27;20068;-45
2023/02/22 09:32:47;;;;;;;4.65;3.63;;;;;;;15.88;50.15;96071.47;5103590;27;20429;-50
2023/02/22 09:35:16;;;;;;;4.75;3.28;;;;;;;16.24;50.69;96063.47;5107008;27;20075;-47
2023/02/22 09:37:44;;;;;;;5.70;3.50;;;;;;;16.93;48.76;96062.00;5103524;27;20538;-46
2023/02/22 09:40:23;;;;;;;5.72;3.55;;;;;;;16.88;50.79;96057.28;5093743;28;20072;-50
2023/02/22 09:43:00;;;;;;;10.18;4.28;;;;;;;17.35;48.77;96052.25;5092871;27;20091;-50
2023/02/22 09:45:33;;;;;;;8.65;4.22;;;;;;;16.78;49.39;96048.81;5102907;27;20083;-51
2023/02/22 09:48:04;;;;;;;6.90;4.00;;;;;;;17.91;47.38;96052.13;5108008;27;20472;-52
2023/02/22 09:50:51;;;;;;;7.57;3.90;;;;;;;18.21;48.04;96049.94;5104299;27;20095;-53
2023/02/22 09:53:28;;;;;;;;;;;;;;;17.91;47.83;96049.44;5109095;27;20079;-48
2023/02/22 09:56:00;;;;;;;6.15;3.20;;;;;;;17.81;47.18;96049.81;5100162;27;19957;-51
2023/02/22 09:58:32;;;;;;;4.60;3.20;;;;;;;18.52;45.66;96041.34;5097740;28;20075;-49
2023/02/22 10:01:13;;;;;;;6.63;4.07;;;;;;;16.82;47.86;96053.53;5104844;27;20540;-50
2023/02/22 10:03:45;;;;;;;;;;;;;;;17.85;46.53;96039.56;5099461;27;20079;-49
2023/02/22 10:06:16;;;;;;;6.10;3.67;;;;;;;18.32;46.84;96040.50;5109667;27;20486;-50
2023/02/22 10:08:45;;;;;;;6.82;3.40;;;;;;;18.43;46.76;96038.03;5099554;27;20087;-51
2023/02/22 10:11:29;;;;;;;5.82;3.92;;;;;;;17.53;48.86;96034.72;5101259;27;20087;-45
2023/02/22 10:14:06;;;;;;;7.18;3.70;;;;;;;18.82;45.86;96030.28;5103506;27;20527;-52
2023/02/22 10:16:38;;;;;;;6.55;3.80;;;;;;;18.90;45.50;96030.91;5104453;27;20076;-49
2023/02/22 10:19:17;;;;;;;4.82;2.95;;;;;;;18.68;43.43;96026.75;5105544;27;20084;-48
2023/02/22 10:21:58;;;;;;;6.32;2.80;;;;;;;17.57;45.35;96037.78;5104201;27;20090;-52
2023/02/22 10:24:37;;;;;;;5.15;2.70;;;;;;;18.15;45.77;96021.38;5100538;27;20079;-47
2023/02/22 10:27:14;;;;;;;7.75;2.60;;;;;;;18.38;45.45;96019.16;5097860;27;20079;-49
2023/02/22 10:29:45;;;;;;;4.20;2.35;;;;;;;17.05;46.84;96020.50;5106898;27;20487;-52
2023/02/22 10:32:16;;;;;;;6.20;2.20;;;;;;;17.30;47.59;96018.19;5093852;27;20085;-51
2023/02/22 10:34:48;;;;;;;11.65;2.67;;;;;;;17.99;46.87;96015.38;5096983;27;20508;-48
2023/02/22 10:37:22;;;;;;;5.85;2.70;;;;;;;17.73;47.30;96018.78;5094120;28;20080;-51
2023/02/22 10:39:54;;;;;;;4.82;2.53;;;;;;;17.97;46.93;96008.63;5096946;27;20087;-47
2023/02/22 10:42:26;;;;;;;5.60;2.58;;;;;;;18.12;45.60;96006.59;5119825;27;20086;-49
2023/02/22 10:44:54;;;;;;;5.18;2.67;;;;;;;18.38;45.91;96007.66;5107309;27;20478;-47
2023/02/22 10:47:23;;;;;;;5.60;2.70;;;;;;;18.27;45.74;96001.06;5095035;27;20555;-48
2023/02/22 10:49:54;;;;;;;6.30;2.33;;;;;;;17.64;46.56;96003.97;5102989;27;20091;-55
2023/02/22 10:52:26;;;;;;;3.65;2.30;;;;;;;18.50;44.93;95996.16;5099582;27;20083;-49
2023/02/22 10:54:56;;;;;;;7.00;2.40;;;;;;;18.32;45.51;95993.28;5101245;27;20467;-53
2023/02/22 10:57:45;;;;;;;7.60;2.40;;;;;;;17.88;46.43;95996.50;5098621;27;20087;-50
2023/02/22 11:00:18;;;;;;;3.08;2.00;;;;;;;18.11;45.85;95996.97;5105314;27;20098;-48
2023/02/22 11:02:51;;;;;;;3.63;2.38;;;;;;;18.03;46.80;95992.63;5094881;27;20078;-49
2023/02/22 11:05:28;;;;;;;3.70;2.40;;;;;;;18.25;47.21;95987.13;5100240;27;20082;-52
2023/02/22 11:08:15;;;;;;;3.45;2.22;;;;;;;18.30;47.36;95986.50;5092148;27;20083;-49
2023/02/22 11:10:44;;;;;;;5.22;2.25;;;;;;;18.77;46.00;95982.00;5101854;27;20090;-50
2023/02/22 11:13:25;;;;;;;4.93;2.22;;;;;;;18.78;46.93;95994.31;5103165;27;20087;-46
2023/02/22 11:15:54;;;;;;;4.05;2.30;;;;;;;19.59;45.18;95980.53;5096827;27;20072;-47
2023/02/22 11:18:25;;;;;;;3.95;2.78;;;;;;;20.06;44.88;95973.94;5095640;28;20087;-50
2023/02/22 11:21:06;;;;;;;4.80;2.70;;;;;;;20.27;44.27;95969.25;5098961;27;20086;-46
2023/02/22 11:23:36;;;;;;;4.32;2.95;;;;;;;20.29;44.85;95967.97;5113954;27;20085;-51
2023/02/22 11:26:08;;;;;;;4.03;2.92;;;;;;;19.19;46.90;95976.13;5095119;27;20466;-50
2023/02/22 11:28:48;;;;;;;4.70;2.60;;;;;;;19.98;45.05;95966.13;5093855;27;20087;-49
2023/02/22 11:31:18;;;;;;;5.78;3.30;;;;;;;19.82;45.47;95959.47;5102186;27;20076;-47
2023/02/22 11:33:51;;;;;;;4.32;2.60;;;;;;;19.36;45.91;95968.47;5096319;27;20098;-49
2023/02/22 11:36:39;;;;;;;5.15;2.90;;;;;;;19.12;47.94;95951.28;5101211;27;20073;-50
2023/02/22 11:39:21;;;;;;;5.85;3.17;;;;;;;20.20;47.14;95942.53;5098455;27;20157;-51
2023/02/22 11:41:50;;;;;;;4.88;2.50;;;;;;;19.41;46.21;95943.78;5099682;28;20068;-53
2023/02/22 11:44:25;;;;;;;4.28;2.65;;;;;;;19.40;46.44;95939.47;5104310;27;20096;-49
2023/02/22 11:46:54;;;;;;;5.28;2.53;;;;;;;19.35;46.88;95939.28;5100663;27;20075;-51